Time;durP1;ratioP1;P1;durP2;ratioP2;P2;SDS_P1;SDS_P2;PMS_P1;PMS_P2;Temp;Humidity;BMP_temperature;BMP_pressure;BME280_temperature;BME280_humidity;BME280_pressure;Samples;Min_cycle;Max_cycle;Signal;HPM_P1;HPM_P2
2022/01/21 00:01:14;;;;;;;;;;;21.80;45.40;;;;;;5117911;27;19928;-39
2022/01/21 00:03:42;;;;;;;;;;;21.70;45.40;;;;;;5116803;27;19982;-40
2022/01/21 00:06:09;;;;;;;;;;;21.80;45.40;;;;;;5135721;27;19944;-40
2022/01/21 00:08:37;;;;;;;;;;;21.70;45.30;;;;;;5134873;27;20340;-40
2022/01/21 00:11:07;;;;;;;;;;;21.70;45.40;;;;;;5135966;27;19923;-43
2022/01/21 00:13:35;;;;;;;;;;;21.70;45.40;;;;;;5135576;27;19923;-40
2022/01/21 00:16:05;;;;;;;;;;;21.70;45.40;;;;;;5135730;27;19927;-40
2022/01/21 00:18:36;;;;;;;;;;;21.70;45.40;;;;;;5134772;27;19977;-41
2022/01/21 00:32:07;;;;;;;;;;;21.70;45.40;;;;;;5135300;27;19923;-41
2022/01/21 00:34:35;;;;;;;;;;;21.70;45.40;;;;;;5134745;27;19947;-38
2022/01/21 00:37:02;;;;;;;;;;;21.70;45.40;;;;;;5135166;27;19931;-39
2022/01/21 00:39:32;;;;;;;;;;;21.70;45.40;;;;;;5133893;27;19934;-39
2022/01/21 00:44:26;;;;;;;;;;;21.70;45.40;;;;;;5135918;27;20420;-40
2022/01/21 00:46:53;;;;;;;;;;;21.70;45.40;;;;;;5134867;27;19931;-40
2022/01/21 00:49:20;;;;;;;;;;;21.70;45.40;;;;;;5134279;27;19927;-39
2022/01/21 00:51:47;;;;;;;;;;;21.70;45.40;;;;;;5135056;27;19923;-38
2022/01/21 00:54:14;;;;;;;;;;;21.70;45.40;;;;;;5134103;27;20283;-40
2022/01/21 00:56:41;;;;;;;;;;;21.70;45.40;;;;;;5135161;27;19923;-38
2022/01/21 00:59:08;;;;;;;;;;;21.70;45.30;;;;;;5135182;27;20290;-39
2022/01/21 01:01:35;;;;;;;;;;;21.70;45.30;;;;;;5134429;27;19997;-40
2022/01/21 01:04:03;;;;;;;;;;;21.70;45.40;;;;;;5133819;27;20462;-39
2022/01/21 01:06:30;;;;;;;;;;;21.70;45.40;;;;;;5134738;27;19923;-39
2022/01/21 01:08:57;;;;;;;;;;;21.60;45.30;;;;;;5133984;27;19924;-41
2022/01/21 01:11:46;;;;;;;;;;;21.70;45.40;;;;;;5135005;27;19967;-39
2022/01/21 01:19:59;;;;;;;;;;;21.60;45.30;;;;;;5133976;28;19984;-39
2022/01/21 01:22:38;;;;;;;;;;;21.60;45.30;;;;;;5134374;28;19924;-39
2022/01/21 01:27:51;;;;;;;;;;;21.60;45.30;;;;;;5134595;28;19953;-41
2022/01/21 01:30:19;;;;;;;;;;;21.60;45.30;;;;;;5134538;28;19970;-40
2022/01/21 01:32:47;;;;;;;;;;;21.60;45.30;;;;;;5116661;28;19923;-41
2022/01/21 01:35:17;;;;;;;;;;;21.60;45.30;;;;;;5134043;28;19978;-40
2022/01/21 01:43:10;;;;;;;;;;;21.60;45.30;;;;;;5138843;27;19970;-39
2022/01/21 01:50:56;;;;;;;;;;;21.60;45.30;;;;;;5138440;27;19985;-42
2022/01/21 01:53:28;;;;;;;;;;;21.60;45.30;;;;;;5138476;27;20000;-39
2022/01/21 01:55:56;;;;;;;;;;;21.60;45.40;;;;;;5137255;27;19927;-40
2022/01/21 01:58:23;;;;;;;;;;;21.60;45.30;;;;;;5138208;27;19938;-39
2022/01/21 02:00:51;;;;;;;;;;;21.60;45.30;;;;;;5138098;27;19971;-39
2022/01/21 02:03:18;;;;;;;;;;;21.60;45.30;;;;;;5137840;27;20018;-40
2022/01/21 02:05:45;;;;;;;;;;;21.60;45.30;;;;;;5137436;27;19923;-39
2022/01/21 02:08:11;;;;;;;;;;;21.60;45.30;;;;;;5138949;27;19927;-40
2022/01/21 02:10:40;;;;;;;;;;;21.60;45.30;;;;;;5137164;27;20049;-39
2022/01/21 02:13:20;;;;;;;;;;;21.60;45.30;;;;;;5137975;27;20014;-39
2022/01/21 02:15:57;;;;;;;;;;;21.50;45.30;;;;;;5137855;27;20382;-40
2022/01/21 02:21:36;;;;;;;;;;;21.60;45.40;;;;;;5137633;27;19927;-39
2022/01/21 02:24:30;;;;;;;;;;;21.50;45.30;;;;;;5122405;27;20279;-42
2022/01/21 02:26:59;;;;;;;;;;;21.50;45.30;;;;;;5117503;28;19970;-39
2022/01/21 02:29:32;;;;;;;;;;;21.50;45.30;;;;;;5117045;28;19970;-40
2022/01/21 02:32:00;;;;;;;;;;;21.50;45.30;;;;;;5117076;28;19978;-38
2022/01/21 02:34:27;;;;;;;;;;;21.50;45.30;;;;;;5122235;27;19924;-39
2022/01/21 02:36:54;;;;;;;;;;;21.50;45.30;;;;;;5137814;27;20328;-40
2022/01/21 02:39:21;;;;;;;;;;;21.50;45.30;;;;;;5136406;27;19923;-41
2022/01/21 02:41:48;;;;;;;;;;;21.60;45.40;;;;;;5137651;27;20010;-39
2022/01/21 02:44:17;;;;;;;;;;;21.50;45.30;;;;;;5137659;27;19969;-41
2022/01/21 02:46:46;;;;;;;;;;;21.50;45.30;;;;;;5137488;27;19992;-39
2022/01/21 02:49:14;;;;;;;;;;;21.50;45.30;;;;;;5136475;27;19924;-39
2022/01/21 02:51:41;;;;;;;;;;;21.50;45.30;;;;;;5137347;27;19996;-40
2022/01/21 02:54:09;;;;;;;;;;;21.50;45.40;;;;;;5137472;27;19977;-39
2022/01/21 02:56:37;;;;;;;;;;;21.50;45.30;;;;;;5136351;27;19928;-40
2022/01/21 02:59:05;;;;;;;;;;;21.50;45.40;;;;;;5137085;27;19924;-40
2022/01/21 03:01:34;;;;;;;;;;;21.50;45.30;;;;;;5136323;27;19932;-39
2022/01/21 03:04:06;;;;;;;;;;;21.50;45.40;;;;;;5137270;27;20337;-39
2022/01/21 03:06:33;;;;;;;;;;;21.50;45.40;;;;;;5115874;27;19924;-39
2022/01/21 03:09:00;;;;;;;;;;;21.50;45.40;;;;;;5116640;28;19946;-39
2022/01/21 03:11:28;;;;;;;;;;;21.50;45.40;;;;;;5131620;27;19930;-39
2022/01/21 03:13:55;;;;;;;;;;;21.50;45.40;;;;;;5137087;27;19975;-38
2022/01/21 03:16:22;;;;;;;;;;;21.50;45.40;;;;;;5136869;27;20271;-40
2022/01/21 03:18:49;;;;;;;;;;;21.40;45.30;;;;;;5137032;27;20341;-39
2022/01/21 03:21:17;;;;;;;;;;;21.40;45.30;;;;;;5135685;27;20019;-39
2022/01/21 03:23:46;;;;;;;;;;;21.40;45.30;;;;;;5136744;27;19923;-40
2022/01/21 03:26:18;;;;;;;;;;;21.40;45.30;;;;;;5135781;27;19967;-38
2022/01/21 03:28:47;;;;;;;;;;;21.40;45.30;;;;;;5136786;27;19924;-40
2022/01/21 03:31:14;;;;;;;;;;;21.40;45.30;;;;;;5136434;27;19923;-39
2022/01/21 03:33:42;;;;;;;;;;;21.40;45.30;;;;;;5136701;27;19924;-40
2022/01/21 03:36:09;;;;;;;;;;;21.40;45.30;;;;;;5121724;27;19969;-41
2022/01/21 03:38:37;;;;;;;;;;;21.40;45.30;;;;;;5115741;28;19928;-40
2022/01/21 03:41:04;;;;;;;;;;;21.40;45.30;;;;;;5125077;27;20018;-41
2022/01/21 03:43:31;;;;;;;;;;;21.40;45.30;;;;;;5136182;27;20014;-41
2022/01/21 03:45:59;;;;;;;;;;;21.40;45.30;;;;;;5136447;27;19924;-40
2022/01/21 03:48:26;;;;;;;;;;;21.40;45.30;;;;;;5118059;27;19963;-39
2022/01/21 03:50:53;;;;;;;;;;;21.40;45.30;;;;;;5135264;27;20337;-39
2022/01/21 03:53:20;;;;;;;;;;;21.40;45.30;;;;;;5136140;27;19927;-39
2022/01/21 03:55:48;;;;;;;;;;;21.40;45.30;;;;;;5116940;27;19969;-39
2022/01/21 03:58:15;;;;;;;;;;;21.40;45.40;;;;;;5136209;27;20324;-39
2022/01/21 04:00:44;;;;;;;;;;;21.40;45.30;;;;;;5135095;27;19924;-39
2022/01/21 04:03:12;;;;;;;;;;;21.40;45.30;;;;;;5135154;27;19930;-38
2022/01/21 04:05:39;;;;;;;;;;;21.40;45.30;;;;;;5135104;27;19924;-39
2022/01/21 04:08:07;;;;;;;;;;;21.40;45.30;;;;;;5136029;27;20345;-41
2022/01/21 04:10:41;;;;;;;;;;;21.40;45.30;;;;;;5134588;27;19996;-40
2022/01/21 04:13:14;;;;;;;;;;;21.40;45.30;;;;;;5135693;27;19923;-41
2022/01/21 04:15:42;;;;;;;;;;;21.40;45.30;;;;;;5135476;27;19931;-39
2022/01/21 04:18:09;;;;;;;;;;;21.40;45.30;;;;;;5135548;27;19923;-40
2022/01/21 04:20:36;;;;;;;;;;;21.40;45.30;;;;;;5134724;27;20305;-43
2022/01/21 04:23:04;;;;;;;;;;;21.40;45.30;;;;;;5135196;27;19923;-45
2022/01/21 04:25:31;;;;;;;;;;;21.40;45.30;;;;;;5134267;27;19923;-40
2022/01/21 04:27:59;;;;;;;;;;;21.40;45.30;;;;;;5136176;27;19948;-49
2022/01/21 04:30:26;;;;;;;;;;;21.40;45.30;;;;;;5135652;27;20331;-46
2022/01/21 04:32:53;;;;;;;;;;;21.40;45.30;;;;;;5135599;27;19923;-40
2022/01/21 04:35:20;;;;;;;;;;;21.40;45.30;;;;;;5134492;27;19927;-40
2022/01/21 04:37:54;;;;;;;;;;;21.40;45.30;;;;;;5135155;27;19962;-40
2022/01/21 04:40:25;;;;;;;;;;;21.40;45.30;;;;;;5135507;27;19970;-39
2022/01/21 04:48:24;;;;;;;;;;;21.40;45.30;;;;;;5135086;27;19930;-40
2022/01/21 04:50:57;;;;;;;;;;;21.30;45.20;;;;;;5134574;27;19941;-39
2022/01/21 04:53:25;;;;;;;;;;;21.30;45.20;;;;;;5135079;27;19968;-41
2022/01/21 04:55:53;;;;;;;;;;;21.30;45.20;;;;;;5134075;27;19963;-39
2022/01/21 04:58:19;;;;;;;;;;;21.30;45.20;;;;;;5134884;27;19923;-40
2022/01/21 05:00:46;;;;;;;;;;;21.30;45.20;;;;;;5135143;27;19976;-42
2022/01/21 05:03:13;;;;;;;;;;;21.30;45.20;;;;;;5134442;27;19923;-40
2022/01/21 05:05:41;;;;;;;;;;;21.30;45.20;;;;;;5132835;27;20260;-42
2022/01/21 05:08:19;;;;;;;;;;;21.30;45.20;;;;;;5114528;28;20337;-39
2022/01/21 05:10:46;;;;;;;;;;;21.30;45.30;;;;;;5114438;28;19967;-42
2022/01/21 05:13:16;;;;;;;;;;;21.30;45.30;;;;;;5133537;27;19923;-39
2022/01/21 05:18:10;;;;;;;;;;;21.30;45.20;;;;;;5134642;28;19924;-41
2022/01/21 05:20:37;;;;;;;;;;;21.30;45.30;;;;;;5134531;28;19924;-40
2022/01/21 05:23:04;;;;;;;;;;;21.30;45.30;;;;;;5133566;28;20328;-41
2022/01/21 05:25:31;;;;;;;;;;;21.30;45.30;;;;;;5134606;28;19945;-40
2022/01/21 05:27:59;;;;;;;;;;;21.30;45.30;;;;;;5133793;28;20003;-41
2022/01/21 05:30:26;;;;;;;;;;;21.30;45.30;;;;;;5134853;28;19976;-39
2022/01/21 05:32:53;;;;;;;;;;;21.30;45.30;;;;;;5134502;28;19956;-41
2022/01/21 05:35:20;;;;;;;;;;;21.30;45.30;;;;;;5134508;28;19965;-41
2022/01/21 05:37:47;;;;;;;;;;;21.30;45.30;;;;;;5134053;28;20289;-42
2022/01/21 05:40:15;;;;;;;;;;;21.30;45.30;;;;;;5134438;28;19927;-39
2022/01/21 05:42:42;;;;;;;;;;;21.30;45.20;;;;;;5133289;28;20379;-41
2022/01/21 05:47:55;;;;;;;;;;;21.30;45.30;;;;;;5135290;28;19988;-40
2022/01/21 05:50:22;;;;;;;;;;;21.30;45.20;;;;;;5134654;28;19969;-45
2022/01/21 05:52:49;;;;;;;;;;;21.30;45.30;;;;;;5118342;28;20010;-39
2022/01/21 05:55:17;;;;;;;;;;;21.30;45.30;;;;;;5113798;28;19924;-40
2022/01/21 05:57:44;;;;;;;;;;;21.30;45.20;;;;;;5113871;28;19923;-40
2022/01/21 06:00:11;;;;;;;;;;;21.30;45.30;;;;;;5113743;28;19974;-41
2022/01/21 06:02:39;;;;;;;;;;;21.20;45.20;;;;;;5114232;28;20332;-41
2022/01/21 06:05:06;;;;;;;;;;;21.20;45.20;;;;;;5113652;28;19924;-43
2022/01/21 06:07:34;;;;;;;;;;;21.20;45.20;;;;;;5124244;28;20417;-40
2022/01/21 06:10:01;;;;;;;;;;;21.20;45.20;;;;;;5134158;28;19927;-44
2022/01/21 06:12:27;;;;;;;;;;;21.20;45.20;;;;;;5126117;28;20345;-39
2022/01/21 06:14:54;;;;;;;;;;;21.30;45.30;;;;;;5113578;28;19977;-40
2022/01/21 06:17:21;;;;;;;;;;;21.20;45.20;;;;;;5113562;28;20146;-42
2022/01/21 06:19:50;;;;;;;;;;;21.20;45.20;;;;;;5113917;28;19923;-41
2022/01/21 06:22:17;;;;;;;;;;;21.20;45.20;;;;;;5113662;28;20007;-42
2022/01/21 06:24:45;;;;;;;;;;;21.20;45.20;;;;;;5116885;28;19923;-40
2022/01/21 06:27:13;;;;;;;;;;;21.20;45.20;;;;;;5120338;27;19972;-40
2022/01/21 06:29:42;;;;;;;;;;;21.20;45.20;;;;;;5136898;27;20396;-40
2022/01/21 06:32:10;;;;;;;;;;;21.20;45.20;;;;;;5135420;27;20035;-40
2022/01/21 06:34:39;;;;;;;;;;;21.20;45.20;;;;;;5136585;27;19946;-39
2022/01/21 06:37:10;;;;;;;;;;;21.20;45.20;;;;;;5134374;27;20442;-41
2022/01/21 06:39:42;;;;;;;;;;;21.20;45.30;;;;;;5135877;27;20398;-42
2022/01/21 06:42:12;;;;;;;;;;;21.20;45.40;;;;;;5135070;27;20684;-42
2022/01/21 06:44:40;;;;;;;;;;;21.20;45.30;;;;;;5136471;27;20442;-42
2022/01/21 06:47:07;;;;;;;;;;;21.20;45.30;;;;;;5136709;27;19969;-40
2022/01/21 06:49:35;;;;;;;;;;;21.20;45.40;;;;;;5136831;27;19924;-41
2022/01/21 06:52:02;;;;;;;;;;;21.20;45.40;;;;;;5135121;27;19938;-41
2022/01/21 06:54:29;;;;;;;;;;;21.20;45.40;;;;;;5136731;27;19928;-42
2022/01/21 06:56:56;;;;;;;;;;;21.20;45.40;;;;;;5136707;27;19924;-41
2022/01/21 06:59:23;;;;;;;;;;;21.20;45.40;;;;;;5135301;27;20002;-42
2022/01/21 07:01:50;;;;;;;;;;;21.20;45.40;;;;;;5135843;27;20032;-40
2022/01/21 07:04:23;;;;;;;;;;;21.20;45.40;;;;;;5136457;27;20563;-40
2022/01/21 07:06:56;;;;;;;;;;;21.20;45.40;;;;;;5136158;27;19924;-40
2022/01/21 07:09:40;;;;;;;;;;;21.20;45.40;;;;;;5114598;28;19924;-40
2022/01/21 07:12:15;;;;;;;;;;;21.20;45.50;;;;;;5114333;28;20279;-43
2022/01/21 07:14:49;;;;;;;;;;;21.20;45.60;;;;;;5118630;27;19927;-42
2022/01/21 07:17:18;;;;;;;;;;;21.20;45.50;;;;;;5135847;27;20018;-39
2022/01/21 07:19:49;;;;;;;;;;;21.20;45.50;;;;;;5135588;27;19923;-43
2022/01/21 07:22:17;;;;;;;;;;;21.30;45.50;;;;;;5134572;27;20325;-41
2022/01/21 07:24:44;;;;;;;;;;;21.30;45.60;;;;;;5135828;27;19923;-42
2022/01/21 07:27:11;;;;;;;;;;;21.30;45.60;;;;;;5135418;27;19930;-43
2022/01/21 07:29:38;;;;;;;;;;;21.30;45.60;;;;;;5134593;27;19924;-40
2022/01/21 07:32:05;;;;;;;;;;;21.30;45.60;;;;;;5135447;27;19923;-43
2022/01/21 07:34:32;;;;;;;;;;;21.30;45.60;;;;;;5134646;27;19939;-42
2022/01/21 07:36:59;;;;;;;;;;;21.30;45.60;;;;;;5135738;27;20059;-41
2022/01/21 07:39:26;;;;;;;;;;;21.30;45.60;;;;;;5134931;27;20048;-41
2022/01/21 07:41:53;;;;;;;;;;;21.30;45.60;;;;;;5135582;27;19972;-44
2022/01/21 07:44:20;;;;;;;;;;;21.30;45.60;;;;;;5119586;27;19924;-40
2022/01/21 07:46:48;;;;;;;;;;;21.30;45.70;;;;;;5114735;28;19973;-40
2022/01/21 07:49:15;;;;;;;;;;;21.30;46.30;;;;;;5114971;28;19928;-43
2022/01/21 07:51:43;;;;;;;;;;;21.30;45.70;;;;;;5114403;28;19986;-41
2022/01/21 07:54:10;;;;;;;;;;;21.30;45.80;;;;;;5128298;27;19927;-40
2022/01/21 07:56:37;;;;;;;;;;;21.30;45.80;;;;;;5135119;27;20003;-39
2022/01/21 07:59:05;;;;;;;;;;;21.30;45.80;;;;;;5133578;27;19930;-43
2022/01/21 08:01:33;;;;;;;;;;;21.30;45.80;;;;;;5134544;27;20301;-42
2022/01/21 08:04:00;;;;;;;;;;;21.40;45.90;;;;;;5134835;27;19923;-41
2022/01/21 08:06:27;;;;;;;;;;;21.40;46.00;;;;;;5135268;27;19923;-40
2022/01/21 08:08:54;;;;;;;;;;;21.40;46.00;;;;;;5133701;27;20018;-41
2022/01/21 08:11:21;;;;;;;;;;;21.40;46.00;;;;;;5135051;27;19924;-42
2022/01/21 08:13:49;;;;;;;;;;;21.40;46.00;;;;;;5133456;27;20003;-44
2022/01/21 08:16:16;;;;;;;;;;;21.40;46.00;;;;;;5134939;27;19992;-41
2022/01/21 08:18:43;;;;;;;;;;;21.40;46.10;;;;;;5134442;27;19950;-41
2022/01/21 08:21:18;;;;;;;;;;;21.40;46.10;;;;;;5134382;27;20276;-43
2022/01/21 08:23:49;;;;;;;;;;;21.40;46.10;;;;;;5133401;27;19934;-44
2022/01/21 08:26:19;;;;;;;;;;;21.40;46.20;;;;;;5134857;27;20376;-42
2022/01/21 08:28:46;;;;;;;;;;;21.40;46.20;;;;;;5133554;27;19978;-43
2022/01/21 08:31:13;;;;;;;;;;;21.40;46.20;;;;;;5134130;27;19931;-43
2022/01/21 08:33:40;;;;;;;;;;;21.40;46.20;;;;;;5134529;27;19930;-41
2022/01/21 08:36:07;;;;;;;;;;;21.40;46.20;;;;;;5116216;27;19930;-42
2022/01/21 08:38:34;;;;;;;;;;;21.50;46.30;;;;;;5133431;27;19978;-42
2022/01/21 08:41:02;;;;;;;;;;;21.40;46.20;;;;;;5134134;27;20017;-40
2022/01/21 08:43:29;;;;;;;;;;;21.50;46.30;;;;;;5133040;27;19923;-41
2022/01/21 08:45:56;;;;;;;;;;;21.50;46.40;;;;;;5133845;27;19959;-44
2022/01/21 08:48:23;;;;;;;;;;;21.50;46.40;;;;;;5134096;27;20436;-41
2022/01/21 08:50:50;;;;;;;;;;;21.50;46.40;;;;;;5134189;27;19956;-43
2022/01/21 08:56:04;;;;;;;;;;;21.50;46.40;;;;;;5134114;27;19927;-41
2022/01/21 08:58:31;;;;;;;;;;;21.50;46.40;;;;;;5133168;27;20322;-42
2022/01/21 09:00:58;;;;;;;;;;;21.50;46.40;;;;;;5133686;27;20018;-44
2022/01/21 09:03:25;;;;;;;;;;;21.50;46.50;;;;;;5133830;27;19931;-42
2022/01/21 09:05:52;;;;;;;;;;;21.50;46.50;;;;;;5133913;27;20040;-42
2022/01/21 09:08:24;;;;;;;;;;;21.50;46.50;;;;;;5133357;27;19923;-45
2022/01/21 09:10:51;;;;;;;;;;;21.50;46.50;;;;;;5134142;27;19947;-41
2022/01/21 09:13:19;;;;;;;;;;;21.50;46.50;;;;;;5133897;27;19937;-44
2022/01/21 09:15:46;;;;;;;;;;;21.50;46.50;;;;;;5132433;27;19923;-44
2022/01/21 09:18:18;;;;;;;;;;;21.50;46.60;;;;;;5133765;28;19928;-45
2022/01/21 09:20:46;;;;;;;;;;;21.50;46.60;;;;;;5133510;28;19923;-42
2022/01/21 09:23:13;;;;;;;;;;;21.50;46.60;;;;;;5133625;28;19988;-45
2022/01/21 09:25:40;;;;;;;;;;;21.50;46.60;;;;;;5132738;28;19924;-43
2022/01/21 09:28:07;;;;;;;;;;;21.50;46.60;;;;;;5133461;28;19924;-40
2022/01/21 09:30:34;;;;;;;;;;;21.50;46.60;;;;;;5132473;28;19923;-45
2022/01/21 09:33:01;;;;;;;;;;;21.60;46.70;;;;;;5133424;28;19927;-39
2022/01/21 09:35:27;;;;;;;;;;;21.60;46.70;;;;;;5133943;28;19923;-40
2022/01/21 09:37:54;;;;;;;;;;;21.60;46.70;;;;;;5133501;28;19945;-41
2022/01/21 09:40:45;;;;;;;;;;;21.60;46.70;;;;;;5133178;28;20290;-40
2022/01/21 09:43:14;;;;;;;;;;;21.60;46.60;;;;;;5133723;28;19933;-40
2022/01/21 09:45:41;;;;;;;;;;;21.60;46.70;;;;;;5132481;28;19971;-43
2022/01/21 09:48:10;;;;;;;;;;;21.60;46.60;;;;;;5133959;28;19967;-42
2022/01/21 09:50:38;;;;;;;;;;;21.60;46.70;;;;;;5133597;28;19923;-39
2022/01/21 09:53:05;;;;;;;;;;;21.60;46.60;;;;;;5133420;28;19923;-40
2022/01/21 09:55:32;;;;;;;;;;;21.60;46.50;;;;;;5132765;28;19971;-39
2022/01/21 09:58:00;;;;;;;;;;;21.60;46.50;;;;;;5133943;27;19924;-45
2022/01/21 10:00:27;;;;;;;;;;;21.60;46.50;;;;;;5136509;27;19927;-40
2022/01/21 10:02:56;;;;;;;;;;;21.70;46.50;;;;;;5136687;27;19948;-41
2022/01/21 10:05:23;;;;;;;;;;;21.70;46.50;;;;;;5137290;27;19927;-43
2022/01/21 10:07:51;;;;;;;;;;;21.70;46.40;;;;;;5137226;27;20435;-42
2022/01/21 10:10:19;;;;;;;;;;;21.70;46.40;;;;;;5136284;27;19931;-41
2022/01/21 10:12:49;;;;;;;;;;;21.70;46.40;;;;;;5136982;27;19923;-41
2022/01/21 10:15:17;;;;;;;;;;;21.70;46.40;;;;;;5135801;27;19931;-41
2022/01/21 10:18:09;;;;;;;;;;;21.70;46.40;;;;;;5137330;27;19962;-40
2022/01/21 10:20:55;;;;;;;;;;;21.70;46.30;;;;;;5124878;27;19923;-40
2022/01/21 10:23:22;;;;;;;;;;;21.70;46.40;;;;;;5136763;27;19923;-40
2022/01/21 10:26:09;;;;;;;;;;;21.70;46.40;;;;;;5135765;27;20325;-39
2022/01/21 10:28:40;;;;;;;;;;;21.70;46.40;;;;;;5137290;27;20259;-40
2022/01/21 10:31:13;;;;;;;;;;;21.80;46.40;;;;;;5135967;27;20010;-41
2022/01/21 10:33:45;;;;;;;;;;;21.80;46.40;;;;;;5137035;27;19924;-40
2022/01/21 10:36:23;;;;;;;;;;;21.80;46.40;;;;;;5136796;27;19988;-41
2022/01/21 10:38:51;;;;;;;;;;;21.80;46.30;;;;;;5137161;27;20268;-40
2022/01/21 10:41:24;;;;;;;;;;;21.80;46.30;;;;;;5124732;27;20375;-42
2022/01/21 10:44:03;;;;;;;;;;;21.90;46.20;;;;;;5116165;28;19931;-42
2022/01/21 10:46:31;;;;;;;;;;;21.90;46.20;;;;;;5133206;27;19988;-41
2022/01/21 10:48:58;;;;;;;;;;;21.90;46.20;;;;;;5136642;27;19923;-40
2022/01/21 10:51:28;;;;;;;;;;;21.90;46.10;;;;;;5136428;27;20344;-40
2022/01/21 10:53:56;;;;;;;;;;;22.00;46.20;;;;;;5136778;27;19924;-40
2022/01/21 10:56:24;;;;;;;;;;;22.00;46.20;;;;;;5126425;27;19936;-40
2022/01/21 10:58:53;;;;;;;;;;;22.00;46.10;;;;;;5115956;28;20333;-43
2022/01/21 11:01:23;;;;;;;;;;;22.00;46.10;;;;;;5129339;27;19923;-41
2022/01/21 11:04:09;;;;;;;;;;;22.00;46.10;;;;;;5136425;27;19924;-40
2022/01/21 11:06:49;;;;;;;;;;;22.00;46.00;;;;;;5136980;27;19924;-40
2022/01/21 11:09:16;;;;;;;;;;;22.00;46.00;;;;;;5136999;27;19931;-41
2022/01/21 11:11:44;;;;;;;;;;;22.00;46.00;;;;;;5135772;27;19923;-40
2022/01/21 11:14:12;;;;;;;;;;;22.00;46.00;;;;;;5136651;27;19924;-39
2022/01/21 11:16:43;;;;;;;;;;;22.00;46.10;;;;;;5135548;27;20018;-40
2022/01/21 11:19:34;;;;;;;;;;;22.00;46.00;;;;;;5136549;27;19924;-42
2022/01/21 11:22:04;;;;;;;;;;;22.00;46.10;;;;;;5136514;27;19930;-40
2022/01/21 11:24:31;;;;;;;;;;;21.90;46.00;;;;;;5136530;27;19980;-41
2022/01/21 11:27:14;;;;;;;;;;;21.90;46.00;;;;;;5136168;27;20022;-45
2022/01/21 11:29:42;;;;;;;;;;;21.90;46.00;;;;;;5136945;27;19957;-40
2022/01/21 11:32:10;;;;;;;;;;;21.90;46.00;;;;;;5116417;27;20375;-44
2022/01/21 11:34:37;;;;;;;;;;;21.80;46.00;;;;;;5115932;28;20379;-39
2022/01/21 11:37:05;;;;;;;;;;;21.80;46.00;;;;;;5115866;28;20456;-42
2022/01/21 11:39:32;;;;;;;;;;;21.80;46.00;;;;;;5115819;28;19924;-44
2022/01/21 11:42:01;;;;;;;;;;;21.80;46.00;;;;;;5115464;28;19985;-42
2022/01/21 11:44:29;;;;;;;;;;;21.80;46.00;;;;;;5115632;28;19928;-42
2022/01/21 11:49:41;;;;;;;;;;;21.70;45.90;;;;;;5136207;27;19923;-41
2022/01/21 11:52:15;;;;;;;;;;;21.70;45.90;;;;;;5136240;27;20306;-40
2022/01/21 11:54:42;;;;;;;;;;;21.70;45.90;;;;;;5135977;27;19923;-43
2022/01/21 11:57:11;;;;;;;;;;;21.70;46.00;;;;;;5135263;27;19927;-42
2022/01/21 12:00:17;;;;;;;;;;;21.70;45.90;;;;;;5135951;27;19977;-40
2022/01/21 12:02:34;;;;;;;;;;;21.70;45.90;;;;;;5113810;28;19958;-43
2022/01/21 12:05:03;;;;;;;;;;;21.70;45.90;;;;;;5115490;28;19930;-42
2022/01/21 12:07:45;;;;;;;;;;;21.70;46.00;;;;;;5115494;28;20014;-42
2022/01/21 12:10:11;;;;;;;;;;;21.70;45.90;;;;;;5115184;28;20341;-42
2022/01/21 12:12:49;;;;;;;;;;;21.70;45.90;;;;;;5114682;28;20387;-41
2022/01/21 12:15:21;;;;;;;;;;;21.70;45.90;;;;;;5114987;28;19972;-41
2022/01/21 12:17:54;;;;;;;;;;;21.60;45.80;;;;;;5114614;28;20375;-41
2022/01/21 12:20:31;;;;;;;;;;;21.60;45.80;;;;;;5114806;28;20375;-43
2022/01/21 12:23:17;;;;;;;;;;;21.60;45.80;;;;;;5114939;28;19992;-41
2022/01/21 12:26:03;;;;;;;;;;;21.60;45.80;;;;;;5114946;28;19977;-42
2022/01/21 12:28:30;;;;;;;;;;;21.60;45.80;;;;;;5133774;27;19966;-41
2022/01/21 12:30:57;;;;;;;;;;;21.60;45.80;;;;;;5134235;27;20539;-41
2022/01/21 12:33:44;;;;;;;;;;;21.60;45.80;;;;;;5135631;27;19928;-45
2022/01/21 12:36:11;;;;;;;;;;;21.60;45.80;;;;;;5135245;27;19930;-41
2022/01/21 12:41:17;;;;;;;;;;;21.60;45.70;;;;;;5135475;27;20283;-42
2022/01/21 12:43:49;;;;;;;;;;;21.60;45.70;;;;;;5134287;27;19927;-41
2022/01/21 12:46:16;;;;;;;;;;;21.60;45.60;;;;;;5134189;27;19949;-40
2022/01/21 12:48:44;;;;;;;;;;;21.60;45.60;;;;;;5136242;27;19969;-42
2022/01/21 12:51:16;;;;;;;;;;;21.60;45.60;;;;;;5135005;27;20458;-41
2022/01/21 12:56:41;;;;;;;;;;;21.60;45.50;;;;;;5134368;27;19976;-45
2022/01/21 12:59:12;;;;;;;;;;;21.60;45.50;;;;;;5135229;27;19966;-40
2022/01/21 13:01:40;;;;;;;;;;;21.60;45.50;;;;;;5133510;27;19924;-39
2022/01/21 13:04:11;;;;;;;;;;;21.60;45.50;;;;;;5134783;27;19930;-43
2022/01/21 13:06:42;;;;;;;;;;;21.60;45.50;;;;;;5135121;27;20336;-42
2022/01/21 13:09:10;;;;;;;;;;;21.60;46.00;;;;;;5135144;27;19954;-42
2022/01/21 13:11:43;;;;;;;;;;;21.60;45.40;;;;;;5116928;28;20366;-42
2022/01/21 13:16:58;;;;;;;;;;;21.60;45.40;;;;;;5120777;28;19923;-41
2022/01/21 13:19:26;;;;;;;;;;;21.60;45.40;;;;;;5135392;28;20333;-41
2022/01/21 13:21:53;;;;;;;;;;;21.60;45.40;;;;;;5134866;28;20022;-43
2022/01/21 13:24:31;;;;;;;;;;;21.60;45.50;;;;;;5134582;28;19985;-43
2022/01/21 13:26:59;;;;;;;;;;;21.60;45.50;;;;;;5134164;28;20355;-43
2022/01/21 13:29:34;;;;;;;;;;;21.60;45.50;;;;;;5134526;28;19954;-41
2022/01/21 13:32:02;;;;;;;;;;;21.50;45.40;;;;;;5133995;27;19923;-41
2022/01/21 13:34:32;;;;;;;;;;;21.60;45.50;;;;;;5138934;27;19928;-42
2022/01/21 13:37:00;;;;;;;;;;;21.50;45.40;;;;;;5139035;27;19923;-42
2022/01/21 13:39:32;;;;;;;;;;;21.50;45.40;;;;;;5138960;27;19927;-41
2022/01/21 13:41:59;;;;;;;;;;;21.50;45.40;;;;;;5138563;27;19924;-49
2022/01/21 13:44:31;;;;;;;;;;;21.50;45.40;;;;;;5137751;27;19930;-41
2022/01/21 13:46:59;;;;;;;;;;;21.50;45.30;;;;;;5133190;27;20367;-41
2022/01/21 13:49:26;;;;;;;;;;;21.60;45.40;;;;;;5118189;28;20332;-42
2022/01/21 13:51:54;;;;;;;;;;;21.60;45.30;;;;;;5117713;28;19953;-42
2022/01/21 13:54:28;;;;;;;;;;;21.60;45.30;;;;;;5117826;28;19924;-43
2022/01/21 13:56:55;;;;;;;;;;;21.60;45.20;;;;;;5100082;28;19923;-42
2022/01/21 13:59:22;;;;;;;;;;;21.60;45.20;;;;;;5116692;27;20006;-42
2022/01/21 14:01:49;;;;;;;;;;;21.60;45.20;;;;;;5136595;27;20013;-41
2022/01/21 14:04:16;;;;;;;;;;;21.60;45.10;;;;;;5138174;27;19923;-44
2022/01/21 14:06:44;;;;;;;;;;;21.60;45.10;;;;;;5138172;27;20417;-46
2022/01/21 14:09:11;;;;;;;;;;;21.60;45.00;;;;;;5138433;27;19928;-45
2022/01/21 14:11:45;;;;;;;;;;;21.60;45.00;;;;;;5138065;27;19970;-41
2022/01/21 14:14:15;;;;;;;;;;;21.60;45.00;;;;;;5137146;27;19923;-41
2022/01/21 14:16:51;;;;;;;;;;;21.70;45.10;;;;;;5137839;27;20432;-41
2022/01/21 14:19:20;;;;;;;;;;;21.60;45.00;;;;;;5117136;28;19931;-40
2022/01/21 14:21:48;;;;;;;;;;;21.70;45.00;;;;;;5117177;28;19974;-40
2022/01/21 14:24:16;;;;;;;;;;;21.60;44.90;;;;;;5117203;28;20401;-41
2022/01/21 14:26:50;;;;;;;;;;;21.60;45.00;;;;;;5117563;28;19923;-41
2022/01/21 14:29:37;;;;;;;;;;;21.60;45.10;;;;;;5131109;27;20036;-41
2022/01/21 14:32:16;;;;;;;;;;;21.60;44.90;;;;;;5136564;27;19928;-42
2022/01/21 14:34:44;;;;;;;;;;;21.60;44.90;;;;;;5138484;27;20011;-44
2022/01/21 14:37:12;;;;;;;;;;;21.60;44.90;;;;;;5137866;27;20018;-40
2022/01/21 14:39:39;;;;;;;;;;;21.60;44.80;;;;;;5137499;27;20414;-41
2022/01/21 14:42:07;;;;;;;;;;;21.60;44.80;;;;;;5137783;27;20063;-41
2022/01/21 14:44:40;;;;;;;;;;;21.60;44.80;;;;;;5118073;27;20015;-41
2022/01/21 14:47:19;;;;;;;;;;;21.70;44.90;;;;;;5136874;27;19923;-42
2022/01/21 14:49:54;;;;;;;;;;;21.70;44.90;;;;;;5137375;27;19924;-42
2022/01/21 14:52:36;;;;;;;;;;;21.70;44.90;;;;;;5137634;27;20014;-40
2022/01/21 14:55:12;;;;;;;;;;;21.70;44.80;;;;;;5137619;27;19924;-42
2022/01/21 14:58:05;;;;;;;;;;;21.60;44.70;;;;;;5137524;27;20014;-41
2022/01/21 15:00:35;;;;;;;;;;;21.70;44.80;;;;;;5085630;28;20436;-42
2022/01/21 15:03:14;;;;;;;;;;;21.70;44.80;;;;;;5122784;27;20334;-43
2022/01/21 15:05:43;;;;;;;;;;;21.60;44.70;;;;;;5137286;27;19977;-40
2022/01/21 15:08:16;;;;;;;;;;;21.60;44.80;;;;;;5137006;27;19923;-40
2022/01/21 15:10:44;;;;;;;;;;;21.60;44.70;;;;;;5137259;27;20018;-40
2022/01/21 15:16:10;;;;;;;;;;;21.60;44.80;;;;;;5137114;27;19924;-40
2022/01/21 15:18:38;;;;;;;;;;;21.60;44.80;;;;;;5136014;27;19984;-40
2022/01/21 15:21:13;;;;;;;;;;;21.60;44.70;;;;;;5136638;27;20450;-40
2022/01/21 15:23:40;;;;;;;;;;;21.60;44.70;;;;;;5136538;27;20379;-40
2022/01/21 15:26:07;;;;;;;;;;;21.70;44.80;;;;;;5136583;27;19993;-40
2022/01/21 15:28:34;;;;;;;;;;;21.60;44.70;;;;;;5135829;27;19931;-42
2022/01/21 15:31:01;;;;;;;;;;;21.60;44.70;;;;;;5136543;27;20382;-41
2022/01/21 15:33:28;;;;;;;;;;;21.60;44.70;;;;;;5135755;27;19923;-41